Time;durP1;ratioP1;P1;durP2;ratioP2;P2;SDS_P1;SDS_P2;PMS_P1;PMS_P2;Temp;Humidity;BMP_temperature;BMP_pressure;BME280_temperature;BME280_humidity;BME280_pressure;Samples;Min_cycle;Max_cycle;Signal;HPM_P1;HPM_P2
2022/03/27 00:00:16;;;;;;;23.57;11.30;;;7.50;86.90;;;;;;5032869;28;20206;-62
2022/03/27 00:02:45;;;;;;;20.90;11.17;;;7.50;87.30;;;;;;5032838;28;20249;-62
2022/03/27 00:05:12;;;;;;;19.83;10.47;;;7.40;87.70;;;;;;5032739;28;20210;-63
2022/03/27 00:07:39;;;;;;;22.33;11.70;;;7.40;87.60;;;;;;5032195;28;20334;-63
2022/03/27 00:10:07;;;;;;;25.20;12.73;;;7.40;87.70;;;;;;5032051;28;20611;-63
2022/03/27 00:12:34;;;;;;;20.87;11.43;;;7.30;87.80;;;;;;5032294;28;20794;-63
2022/03/27 00:15:02;;;;;;;23.10;12.13;;;7.30;87.90;;;;;;5032157;28;20279;-63
2022/03/27 00:17:32;;;;;;;23.73;11.57;;;7.20;88.40;;;;;;5032135;28;20309;-62
2022/03/27 00:20:00;;;;;;;20.47;11.40;;;7.20;88.90;;;;;;5032239;28;20666;-62
2022/03/27 00:22:27;;;;;;;19.20;11.00;;;7.20;89.20;;;;;;5032026;28;20297;-64
2022/03/27 00:24:54;;;;;;;22.63;11.20;;;7.00;89.70;;;;;;5033806;28;20206;-63
2022/03/27 00:27:21;;;;;;;22.37;11.37;;;7.00;90.10;;;;;;5035677;28;20253;-62
2022/03/27 00:29:47;;;;;;;25.73;11.83;;;6.90;90.20;;;;;;5035934;28;20217;-63
2022/03/27 00:32:14;;;;;;;20.33;11.27;;;6.80;90.40;;;;;;5035939;28;20272;-62
2022/03/27 00:34:41;;;;;;;18.67;11.07;;;6.80;90.60;;;;;;5036153;28;20210;-62
2022/03/27 00:37:09;;;;;;;21.23;11.20;;;6.80;90.60;;;;;;5036026;28;20222;-64
2022/03/27 00:39:36;;;;;;;22.50;11.20;;;6.70;90.60;;;;;;5036561;28;20209;-65
2022/03/27 00:42:03;;;;;;;20.90;10.70;;;6.70;91.30;;;;;;5037612;28;20206;-65
2022/03/27 00:44:29;;;;;;;21.17;10.40;;;6.50;91.10;;;;;;5037042;28;20209;-64
2022/03/27 00:46:57;;;;;;;23.50;11.10;;;6.60;91.10;;;;;;5036398;28;20288;-63
2022/03/27 00:49:23;;;;;;;19.30;11.13;;;6.60;91.00;;;;;;5036728;28;20206;-62
2022/03/27 00:51:50;;;;;;;20.30;11.27;;;6.70;91.10;;;;;;5036789;28;20214;-64
2022/03/27 00:54:18;;;;;;;21.00;11.43;;;6.70;91.20;;;;;;5036252;28;20217;-65
2022/03/27 00:56:45;;;;;;;19.80;11.50;;;6.60;91.20;;;;;;5036012;28;20231;-64
2022/03/27 00:59:12;;;;;;;24.83;11.53;;;6.60;91.40;;;;;;5035434;28;20202;-62
2022/03/27 01:01:40;;;;;;;21.07;11.47;;;6.50;91.50;;;;;;5035336;28;20647;-62
2022/03/27 01:04:08;;;;;;;20.70;12.40;;;6.40;91.70;;;;;;5035520;28;20209;-64
2022/03/27 01:06:38;;;;;;;20.07;11.30;;;6.30;92.00;;;;;;5035118;28;20728;-64
2022/03/27 01:11:53;;;;;;;22.30;11.30;;;6.20;92.30;;;;;;5035326;28;20204;-64
2022/03/27 01:14:26;;;;;;;20.90;10.60;;;6.00;92.60;;;;;;5035380;28;20288;-63
2022/03/27 01:16:59;;;;;;;20.90;11.63;;;5.90;92.90;;;;;;5035015;28;20257;-64
2022/03/27 01:19:27;;;;;;;21.23;11.90;;;5.90;93.00;;;;;;5035007;28;20268;-62
2022/03/27 01:21:55;;;;;;;20.03;11.73;;;6.00;93.00;;;;;;5035310;28;20232;-61
2022/03/27 01:24:22;;;;;;;22.33;11.07;;;6.00;92.90;;;;;;5035140;28;20213;-63
2022/03/27 01:26:49;;;;;;;22.37;12.27;;;6.10;92.80;;;;;;5034984;28;20309;-62
2022/03/27 01:29:16;;;;;;;20.37;11.20;;;6.10;92.80;;;;;;5034808;28;20284;-63
2022/03/27 01:31:44;;;;;;;17.07;10.50;;;6.10;92.90;;;;;;5034858;28;20260;-65
2022/03/27 01:34:11;;;;;;;21.23;10.37;;;6.00;93.10;;;;;;5034721;28;20232;-63
2022/03/27 01:36:38;;;;;;;19.50;10.40;;;6.00;93.20;;;;;;5034708;28;20284;-64
2022/03/27 01:39:08;;;;;;;24.23;11.80;;;6.00;93.20;;;;;;5034733;28;20206;-63
2022/03/27 01:41:35;;;;;;;22.27;10.77;;;6.00;93.40;;;;;;5036637;28;20206;-63
2022/03/27 01:44:02;;;;;;;20.10;10.83;;;5.90;93.40;;;;;;5036761;28;20616;-64
2022/03/27 01:46:32;;;;;;;21.90;11.80;;;5.90;93.60;;;;;;5036250;28;20213;-63
2022/03/27 01:49:00;;;;;;;23.33;12.03;;;5.90;93.70;;;;;;5037492;28;20317;-65
2022/03/27 01:51:27;;;;;;;21.70;10.90;;;5.90;93.90;;;;;;5036174;28;20210;-64
2022/03/27 01:53:54;;;;;;;25.53;12.10;;;5.80;94.00;;;;;;5035212;28;20245;-64
2022/03/27 01:56:23;;;;;;;22.67;12.37;;;5.90;93.90;;;;;;5034948;28;20210;-62
2022/03/27 01:58:49;;;;;;;25.50;14.97;;;5.90;93.90;;;;;;5035444;28;20577;-64
2022/03/27 02:01:16;;;;;;;18.20;11.20;;;6.00;93.80;;;;;;5036260;28;20305;-65
2022/03/27 02:03:43;;;;;;;18.77;11.40;;;6.00;93.60;;;;;;5036493;28;20683;-62
2022/03/27 02:06:12;;;;;;;21.40;11.50;;;6.10;93.50;;;;;;5036153;28;20411;-64
2022/03/27 02:08:39;;;;;;;28.33;11.10;;;6.20;93.50;;;;;;5036274;28;20261;-64
2022/03/27 02:11:06;;;;;;;19.20;10.97;;;6.20;93.60;;;;;;5035445;28;20256;-63
2022/03/27 02:13:35;;;;;;;17.43;10.93;;;6.10;93.80;;;;;;5034852;28;20282;-62
2022/03/27 02:16:03;;;;;;;22.07;11.27;;;6.00;93.90;;;;;;5034979;28;20206;-62
2022/03/27 02:18:31;;;;;;;20.53;11.30;;;6.00;94.00;;;;;;5034366;28;20233;-63
2022/03/27 02:21:00;;;;;;;21.83;11.27;;;6.00;94.10;;;;;;5034565;28;20251;-62
2022/03/27 02:23:27;;;;;;;22.23;11.33;;;5.90;94.10;;;;;;5034424;28;20217;-63
2022/03/27 02:25:54;;;;;;;23.97;11.23;;;5.90;94.00;;;;;;5034875;28;20210;-63
2022/03/27 02:28:22;;;;;;;24.73;11.73;;;6.00;94.10;;;;;;5033454;28;20313;-63
2022/03/27 02:30:50;;;;;;;22.13;11.90;;;5.90;94.00;;;;;;5034181;28;20293;-63
2022/03/27 02:33:17;;;;;;;23.57;11.60;;;5.90;94.20;;;;;;5034213;28;20203;-63
2022/03/27 02:35:44;;;;;;;21.67;10.90;;;5.80;94.40;;;;;;5033748;28;20638;-63
2022/03/27 02:38:10;;;;;;;18.57;10.70;;;5.80;94.40;;;;;;5033449;28;20226;-63
2022/03/27 02:40:38;;;;;;;18.77;10.60;;;5.60;94.90;;;;;;5033568;28;20206;-63
2022/03/27 02:43:06;;;;;;;16.40;11.23;;;5.60;95.10;;;;;;5033807;28;20256;-63
2022/03/27 02:45:33;;;;;;;24.87;12.67;;;5.50;95.20;;;;;;5033926;28;20289;-62
2022/03/27 02:48:01;;;;;;;20.03;11.93;;;5.50;95.30;;;;;;5032609;28;20321;-63
2022/03/27 02:50:29;;;;;;;21.70;11.57;;;5.50;95.40;;;;;;5033250;28;20674;-63
2022/03/27 02:52:56;;;;;;;18.57;11.43;;;5.50;95.50;;;;;;5033392;28;20233;-62
2022/03/27 02:55:24;;;;;;;19.97;11.20;;;5.50;95.40;;;;;;5033130;28;20289;-63
2022/03/27 02:57:51;;;;;;;17.07;10.63;;;5.50;95.30;;;;;;5033234;28;20226;-63
2022/03/27 03:00:20;;;;;;;20.00;11.40;;;5.60;95.30;;;;;;5033038;28;20206;-63
2022/03/27 03:02:46;;;;;;;17.87;11.13;;;5.50;95.40;;;;;;5033108;28;20257;-62
2022/03/27 03:05:16;;;;;;;17.03;11.10;;;5.50;95.60;;;;;;5033254;28;20214;-62
2022/03/27 03:07:43;;;;;;;16.07;10.40;;;5.40;95.80;;;;;;5033097;28;20265;-64
2022/03/27 03:10:12;;;;;;;22.73;11.40;;;5.30;96.00;;;;;;5033075;28;20257;-62
2022/03/27 03:12:39;;;;;;;16.30;10.57;;;5.30;96.10;;;;;;5033549;28;20215;-64
2022/03/27 03:15:06;;;;;;;19.83;11.30;;;5.30;96.30;;;;;;5033503;28;20686;-63
2022/03/27 03:17:33;;;;;;;21.67;11.07;;;5.30;96.50;;;;;;5033127;28;20231;-61
2022/03/27 03:20:00;;;;;;;19.67;10.60;;;5.30;96.50;;;;;;5033011;28;20268;-61
2022/03/27 03:22:29;;;;;;;18.90;11.17;;;5.30;96.50;;;;;;5032955;28;20213;-63
2022/03/27 03:24:55;;;;;;;20.70;11.97;;;5.30;96.60;;;;;;5033208;28;20292;-63
2022/03/27 03:27:22;;;;;;;20.20;11.80;;;5.20;96.60;;;;;;5035596;28;20257;-62
2022/03/27 03:29:49;;;;;;;24.73;12.27;;;5.20;96.70;;;;;;5036406;28;20272;-62
2022/03/27 03:32:16;;;;;;;21.90;12.13;;;5.20;96.70;;;;;;5038802;28;20253;-62
2022/03/27 03:34:42;;;;;;;23.67;12.00;;;5.20;96.70;;;;;;5040817;28;20240;-63
2022/03/27 03:37:09;;;;;;;21.80;12.03;;;5.20;96.70;;;;;;5033355;28;20638;-63
2022/03/27 03:39:37;;;;;;;21.07;11.40;;;5.20;96.90;;;;;;5032460;28;20618;-62
2022/03/27 03:42:04;;;;;;;16.83;10.60;;;5.10;97.00;;;;;;5033366;28;20210;-62
2022/03/27 03:44:31;;;;;;;20.13;11.50;;;5.10;97.20;;;;;;5033049;28;20569;-62
2022/03/27 03:46:57;;;;;;;18.40;11.33;;;5.10;97.30;;;;;;5032461;28;20249;-61
2022/03/27 03:49:25;;;;;;;20.23;10.90;;;5.10;97.30;;;;;;5031880;28;20279;-63
2022/03/27 03:51:52;;;;;;;18.20;10.47;;;5.10;97.30;;;;;;5034120;28;20214;-63
2022/03/27 03:54:19;;;;;;;17.83;10.70;;;5.10;97.20;;;;;;5035415;28;20280;-63
2022/03/27 03:56:47;;;;;;;18.80;10.60;;;5.20;97.20;;;;;;5035904;28;20230;-63
2022/03/27 03:59:13;;;;;;;21.07;10.80;;;5.10;97.10;;;;;;5034922;28;20198;-63
2022/03/27 04:01:40;;;;;;;23.47;11.27;;;5.20;97.10;;;;;;5034757;28;20218;-62
2022/03/27 04:04:07;;;;;;;25.73;11.43;;;5.20;97.00;;;;;;5034601;28;20282;-63
2022/03/27 04:06:34;;;;;;;22.77;10.97;;;5.20;96.80;;;;;;5033379;28;20635;-62
2022/03/27 04:09:01;;;;;;;16.93;10.37;;;5.30;96.50;;;;;;5031679;28;20642;-62
2022/03/27 04:11:28;;;;;;;18.53;10.77;;;5.20;96.30;;;;;;5032099;28;20213;-63
2022/03/27 04:13:57;;;;;;;20.33;10.97;;;5.20;96.10;;;;;;5032197;28;20233;-63
2022/03/27 04:16:24;;;;;;;18.13;11.13;;;5.20;96.10;;;;;;5031869;28;20623;-62
2022/03/27 04:18:51;;;;;;;17.73;11.13;;;5.20;96.10;;;;;;5031705;28;20210;-61
2022/03/27 04:21:17;;;;;;;23.10;11.70;;;5.20;96.20;;;;;;5032170;28;20210;-62
2022/03/27 04:23:44;;;;;;;18.77;11.27;;;5.20;96.20;;;;;;5032004;28;20264;-63
2022/03/27 04:26:12;;;;;;;21.50;11.67;;;5.30;96.40;;;;;;5032032;28;20209;-62
2022/03/27 04:28:38;;;;;;;19.10;10.50;;;5.20;96.70;;;;;;5031605;28;20433;-62
2022/03/27 04:31:07;;;;;;;22.83;11.30;;;5.10;96.80;;;;;;5031909;28;20213;-62
2022/03/27 04:33:34;;;;;;;22.50;10.87;;;5.20;97.00;;;;;;5032014;28;20297;-63
2022/03/27 04:36:00;;;;;;;22.17;11.13;;;5.20;97.00;;;;;;5032044;28;20264;-63
2022/03/27 04:38:27;;;;;;;20.13;10.60;;;5.10;97.10;;;;;;5031603;28;20280;-62
2022/03/27 04:40:54;;;;;;;20.57;10.87;;;5.00;97.50;;;;;;5032173;28;20202;-62
2022/03/27 04:43:22;;;;;;;19.67;11.07;;;4.90;97.70;;;;;;5031945;28;20233;-63
2022/03/27 04:45:49;;;;;;;23.20;12.20;;;4.80;97.80;;;;;;5031929;28;20225;-63
2022/03/27 04:48:17;;;;;;;27.20;11.53;;;4.80;97.90;;;;;;5032003;28;20261;-62
2022/03/27 04:50:44;;;;;;;18.30;11.03;;;4.80;98.10;;;;;;5031939;28;20251;-63
2022/03/27 04:53:11;;;;;;;24.50;11.00;;;4.80;98.10;;;;;;5032196;28;20620;-63
2022/03/27 04:55:38;;;;;;;17.97;10.40;;;4.80;98.10;;;;;;5031951;28;20210;-62
2022/03/27 04:58:09;;;;;;;20.07;10.93;;;4.80;98.30;;;;;;5032023;28;20234;-62
2022/03/27 05:00:35;;;;;;;17.00;10.90;;;4.70;98.50;;;;;;5031666;28;20238;-62
2022/03/27 05:03:02;;;;;;;22.53;11.07;;;4.60;98.70;;;;;;5032185;28;20209;-62
2022/03/27 05:05:30;;;;;;;16.17;10.63;;;4.50;99.00;;;;;;5032272;28;20210;-62
2022/03/27 05:07:58;;;;;;;20.23;11.30;;;4.40;99.20;;;;;;5031942;28;20586;-62
2022/03/27 05:10:25;;;;;;;21.27;11.17;;;4.30;99.40;;;;;;5032659;28;20284;-62
2022/03/27 05:12:52;;;;;;;23.57;10.60;;;4.20;99.70;;;;;;5035643;28;20217;-62
2022/03/27 05:15:19;;;;;;;21.63;11.57;;;4.20;99.80;;;;;;5035724;28;20206;-63
2022/03/27 05:17:47;;;;;;;23.77;11.47;;;4.30;99.80;;;;;;5035506;28;20272;-62
2022/03/27 05:20:14;;;;;;;19.97;10.97;;;4.30;99.70;;;;;;5035385;28;20202;-62
2022/03/27 05:22:43;;;;;;;15.63;9.90;;;4.40;99.60;;;;;;5036111;28;20210;-63
2022/03/27 05:25:12;;;;;;;17.03;11.83;;;4.50;99.50;;;;;;5036066;28;20741;-63
2022/03/27 05:27:47;;;;;;;20.00;11.23;;;4.50;99.50;;;;;;5035079;28;20728;-63
2022/03/27 05:30:15;;;;;;;20.10;11.80;;;4.60;99.50;;;;;;5035075;28;20373;-63
2022/03/27 05:32:42;;;;;;;17.13;11.27;;;4.70;99.40;;;;;;5035287;28;20206;-62
2022/03/27 05:35:09;;;;;;;19.40;10.93;;;4.70;99.30;;;;;;5035187;28;20214;-65
2022/03/27 05:37:37;;;;;;;19.93;12.17;;;4.80;99.30;;;;;;5035118;28;20226;-62
2022/03/27 05:40:07;;;;;;;20.33;11.67;;;4.90;99.20;;;;;;5035153;28;20584;-62
2022/03/27 05:42:35;;;;;;;17.17;11.10;;;5.00;99.00;;;;;;5035541;28;20230;-63
2022/03/27 05:45:01;;;;;;;19.13;12.23;;;5.00;99.10;;;;;;5039316;28;20206;-63
2022/03/27 05:47:28;;;;;;;23.37;13.20;;;5.10;99.00;;;;;;5039624;28;20244;-63
2022/03/27 05:49:56;;;;;;;19.93;11.13;;;5.20;98.90;;;;;;5038762;28;20226;-62
2022/03/27 05:52:23;;;;;;;17.77;10.50;;;5.20;98.80;;;;;;5035936;28;20836;-62
2022/03/27 05:54:50;;;;;;;17.90;11.47;;;5.40;98.40;;;;;;5034916;28;20302;-63
2022/03/27 05:57:19;;;;;;;20.20;11.03;;;5.50;97.70;;;;;;5034595;28;20222;-63
2022/03/27 05:59:46;;;;;;;23.47;11.73;;;5.70;97.40;;;;;;5034350;28;20228;-62
2022/03/27 06:02:13;;;;;;;18.80;11.17;;;5.70;96.70;;;;;;5034743;28;20461;-61
2022/03/27 06:04:40;;;;;;;25.10;12.97;;;5.80;97.00;;;;;;5034568;28;20206;-63
2022/03/27 06:07:07;;;;;;;23.43;10.77;;;5.90;96.60;;;;;;5034264;28;20710;-62
2022/03/27 06:09:34;;;;;;;33.93;18.83;;;6.10;96.80;;;;;;5034170;28;20249;-62
2022/03/27 06:12:01;;;;;;;22.47;11.10;;;6.30;96.40;;;;;;5034063;28;20336;-63
2022/03/27 06:14:29;;;;;;;19.83;11.07;;;6.80;96.60;;;;;;5033974;28;20229;-63
2022/03/27 06:16:56;;;;;;;22.60;11.53;;;7.80;95.80;;;;;;5034081;28;20607;-63
2022/03/27 06:19:23;;;;;;;18.73;12.03;;;8.90;93.90;;;;;;5033948;28;20202;-63
2022/03/27 06:21:50;;;;;;;25.83;15.13;;;10.00;91.80;;;;;;5032530;28;20213;-63
2022/03/27 06:24:17;;;;;;;19.03;11.13;;;11.10;90.30;;;;;;5033782;28;20214;-62
2022/03/27 06:26:43;;;;;;;21.20;11.97;;;12.20;86.70;;;;;;5033747;28;20249;-62
2022/03/27 06:29:10;;;;;;;18.87;11.03;;;13.10;84.50;;;;;;5033269;28;20713;-62
2022/03/27 06:31:39;;;;;;;17.80;10.93;;;14.10;82.50;;;;;;5033509;28;20289;-62
2022/03/27 06:34:06;;;;;;;20.13;13.40;;;14.90;78.10;;;;;;5033529;28;20202;-63
2022/03/27 06:36:34;;;;;;;28.67;15.90;;;15.40;73.80;;;;;;5033524;28;20305;-62
2022/03/27 06:39:00;;;;;;;16.40;10.57;;;15.70;73.10;;;;;;5033040;28;20309;-62
2022/03/27 06:41:27;;;;;;;15.15;10.52;;;16.50;72.50;;;;;;5033358;28;20553;-62
2022/03/27 06:43:54;;;;;;;16.70;10.77;;;17.40;69.10;;;;;;5033497;28;20209;-62
2022/03/27 06:46:21;;;;;;;13.95;10.50;;;18.20;65.70;;;;;;5032948;28;20285;-62
2022/03/27 06:48:51;;;;;;;19.55;10.90;;;18.10;64.50;;;;;;5033091;28;20260;-62
2022/03/27 06:51:18;;;;;;;20.75;11.02;;;18.10;65.40;;;;;;5033251;28;20213;-63
2022/03/27 06:53:45;;;;;;;19.58;11.02;;;18.40;63.90;;;;;;5033184;28;20239;-63
2022/03/27 06:56:12;;;;;;;18.67;10.52;;;18.20;63.00;;;;;;5033038;28;20292;-62
2022/03/27 06:58:39;;;;;;;21.83;11.82;;;17.60;63.90;;;;;;5032964;28;20233;-62
2022/03/27 07:03:51;;;;;;;19.23;11.35;;;16.60;66.60;;;;;;5033012;28;20340;-63
2022/03/27 07:06:18;;;;;;;16.00;9.75;;;17.00;65.80;;;;;;5032904;28;20206;-63
2022/03/27 07:08:45;;;;;;;20.23;10.90;;;17.00;64.60;;;;;;5032636;28;20217;-63
2022/03/27 07:11:13;;;;;;;17.48;11.13;;;16.40;66.20;;;;;;5032574;28;20233;-63
2022/03/27 07:13:41;;;;;;;22.58;12.25;;;16.40;67.00;;;;;;5032653;28;20202;-61
2022/03/27 07:16:08;;;;;;;22.60;12.23;;;17.20;65.80;;;;;;5032834;28;20578;-64
2022/03/27 07:18:35;;;;;;;20.33;11.48;;;18.60;63.20;;;;;;5032440;28;20316;-62
2022/03/27 07:21:03;;;;;;;16.52;11.82;;;19.80;60.00;;;;;;5032693;28;20213;-64
2022/03/27 07:23:30;;;;;;;19.83;11.43;;;20.80;58.60;;;;;;5032641;28;20206;-62
2022/03/27 07:25:57;;;;;;;20.65;11.43;;;21.70;57.70;;;;;;5032613;28;20256;-63
2022/03/27 07:28:28;;;;;;;19.40;11.80;;;22.40;56.60;;;;;;5032558;28;20230;-63
2022/03/27 07:30:55;;;;;;;18.60;11.45;;;23.00;55.40;;;;;;5032149;28;20237;-62
2022/03/27 07:33:22;;;;;;;20.35;11.55;;;23.50;54.60;;;;;;5032452;28;20213;-63
2022/03/27 07:35:49;;;;;;;21.75;11.07;;;23.50;54.50;;;;;;5032398;28;20241;-64
2022/03/27 07:38:17;;;;;;;16.15;10.43;;;23.60;53.90;;;;;;5032340;28;20257;-63
2022/03/27 07:40:44;;;;;;;17.05;11.27;;;23.80;53.50;;;;;;5031920;28;20206;-63
2022/03/27 07:43:11;;;;;;;19.13;10.65;;;24.10;53.10;;;;;;5032497;28;20248;-64
2022/03/27 07:45:38;;;;;;;18.05;11.27;;;24.80;52.40;;;;;;5032338;28;20210;-63
2022/03/27 07:48:06;;;;;;;13.65;10.85;;;25.40;50.90;;;;;;5046411;22;20234;-60
2022/03/27 07:50:33;;;;;;;21.08;11.70;;;25.90;49.60;;;;;;5031761;28;20226;-60
2022/03/27 07:53:00;;;;;;;15.57;10.52;;;26.00;48.90;;;;;;5032136;28;20225;-61
2022/03/27 07:55:28;;;;;;;17.67;12.07;;;25.70;48.50;;;;;;5031871;28;20245;-61
2022/03/27 07:57:55;;;;;;;18.55;11.73;;;25.60;48.80;;;;;;5032010;28;20261;-61
2022/03/27 08:00:22;;;;;;;16.05;11.02;;;25.50;49.10;;;;;;5031908;28;20249;-61
2022/03/27 08:02:49;;;;;;;19.08;11.20;;;25.60;49.30;;;;;;5032368;28;20206;-61
2022/03/27 08:05:16;;;;;;;18.70;11.10;;;24.40;50.20;;;;;;5031993;28;20210;-61
2022/03/27 08:07:43;;;;;;;18.75;10.57;;;22.50;52.20;;;;;;5031928;28;20317;-61
2022/03/27 08:10:11;;;;;;;15.88;10.57;;;21.10;54.30;;;;;;5031405;28;20321;-61
2022/03/27 08:12:39;;;;;;;22.15;11.15;;;20.00;56.20;;;;;;5031777;28;20297;-61
2022/03/27 08:15:07;;;;;;;15.35;10.23;;;19.30;57.40;;;;;;5031985;28;20205;-61
2022/03/27 08:17:34;;;;;;;18.88;11.23;;;18.70;58.00;;;;;;5031840;28;20252;-61
2022/03/27 08:20:02;;;;;;;16.67;10.52;;;17.80;61.20;;;;;;5031717;28;20296;-65
2022/03/27 08:22:28;;;;;;;15.45;10.57;;;16.90;63.80;;;;;;5031734;28;20202;-66
2022/03/27 08:24:55;;;;;;;15.85;10.50;;;15.90;66.40;;;;;;5032078;28;20210;-66
2022/03/27 08:27:21;;;;;;;18.65;10.93;;;15.10;68.10;;;;;;5031834;28;20233;-61
2022/03/27 08:29:50;;;;;;;17.17;10.43;;;14.80;70.00;;;;;;5031450;28;20222;-61
2022/03/27 08:32:17;;;;;;;17.63;11.53;;;14.60;71.30;;;;;;5031672;28;20701;-60
2022/03/27 08:34:47;;;;;;;17.87;10.53;;;14.40;72.50;;;;;;5031605;28;20685;-62
2022/03/27 08:37:15;;;;;;;17.13;10.63;;;14.20;74.90;;;;;;5031366;28;20783;-61
2022/03/27 08:39:44;;;;;;;17.10;11.60;;;13.90;76.10;;;;;;5031430;28;20207;-61
2022/03/27 08:42:12;;;;;;;16.47;11.40;;;14.00;76.90;;;;;;5031577;28;20217;-61
2022/03/27 08:44:39;;;;;;;16.73;10.83;;;14.10;77.30;;;;;;5031648;28;20252;-61
2022/03/27 08:47:16;;;;;;;19.23;11.17;;;14.40;77.20;;;;;;5035169;28;20210;-62
2022/03/27 08:49:52;;;;;;;16.57;10.20;;;14.70;76.90;;;;;;5035148;28;20234;-62
2022/03/27 08:52:40;;;;;;;17.53;9.60;;;14.80;76.20;;;;;;5035246;28;20559;-60
2022/03/27 08:55:09;;;;;;;14.43;10.40;;;14.60;75.10;;;;;;5035247;28;20297;-61
2022/03/27 08:57:53;;;;;;;18.23;10.30;;;14.50;75.30;;;;;;5035121;28;20718;-60
2022/03/27 09:00:21;;;;;;;19.13;10.97;;;14.60;76.00;;;;;;5035303;28;20213;-61
2022/03/27 09:02:50;;;;;;;14.40;10.43;;;14.70;76.70;;;;;;5035279;28;20212;-61
2022/03/27 09:05:20;;;;;;;17.87;11.23;;;14.90;78.00;;;;;;5035133;28;20210;-61
2022/03/27 09:07:47;;;;;;;15.43;10.13;;;15.10;77.80;;;;;;5035070;28;20226;-61
2022/03/27 09:10:14;;;;;;;16.67;10.77;;;15.20;77.90;;;;;;5034622;28;20268;-61
2022/03/27 09:12:43;;;;;;;17.30;11.90;;;15.40;76.20;;;;;;5035185;28;20206;-61
2022/03/27 09:15:11;;;;;;;17.60;11.67;;;15.50;75.60;;;;;;5034985;28;20210;-60
2022/03/27 09:17:58;;;;;;;16.17;10.97;;;15.50;75.80;;;;;;5034847;28;20230;-61
2022/03/27 09:20:34;;;;;;;20.03;11.10;;;15.70;75.50;;;;;;5035492;28;20736;-62
2022/03/27 09:23:15;;;;;;;16.67;10.57;;;15.80;75.20;;;;;;5034762;28;20215;-61
2022/03/27 09:25:48;;;;;;;18.23;11.30;;;16.00;74.50;;;;;;5034700;28;20650;-62
2022/03/27 09:28:23;;;;;;;18.07;10.73;;;16.10;75.00;;;;;;5034723;28;20249;-61
2022/03/27 09:30:50;;;;;;;23.80;10.40;;;16.10;75.00;;;;;;5034603;28;20237;-64
2022/03/27 09:33:32;;;;;;;16.63;10.97;;;16.20;74.90;;;;;;5034633;28;20232;-63
2022/03/27 09:36:08;;;;;;;16.37;11.07;;;16.20;75.80;;;;;;5035350;28;20301;-64
2022/03/27 09:38:35;;;;;;;33.05;20.45;;;16.20;75.80;;;;;;5034507;28;20222;-64
2022/03/27 09:41:01;;;;;;;17.10;11.30;;;16.30;76.70;;;;;;5034218;28;20662;-64
2022/03/27 09:43:28;;;;;;;18.10;11.67;;;16.40;75.80;;;;;;5034562;28;20206;-63
2022/03/27 09:45:57;;;;;;;16.80;10.85;;;16.50;76.10;;;;;;5034484;28;20735;-64
2022/03/27 09:48:24;;;;;;;15.83;10.87;;;16.70;75.90;;;;;;5034410;28;20280;-64
2022/03/27 09:50:54;;;;;;;17.83;11.40;;;16.90;75.20;;;;;;5034080;28;20226;-64
2022/03/27 09:53:24;;;;;;;19.23;10.93;;;16.90;74.70;;;;;;5034568;28;20202;-63
2022/03/27 09:55:55;;;;;;;18.77;10.93;;;16.90;74.70;;;;;;5034444;28;20213;-63
2022/03/27 09:58:35;;;;;;;14.95;10.35;;;17.20;74.20;;;;;;5033969;28;20226;-63
2022/03/27 10:01:08;;;;;;;19.27;11.07;;;17.40;73.60;;;;;;5034021;28;20233;-63
2022/03/27 10:03:36;;;;;;;20.57;11.97;;;17.50;73.30;;;;;;5034273;28;20245;-63
2022/03/27 10:06:04;;;;;;;17.73;11.25;;;17.60;72.10;;;;;;5034477;28;20213;-64
2022/03/27 10:08:31;;;;;;;16.60;11.02;;;17.50;72.20;;;;;;5034026;28;20227;-64
2022/03/27 10:10:59;;;;;;;16.13;10.45;;;17.60;71.80;;;;;;5033819;28;20234;-64
2022/03/27 10:13:29;;;;;;;20.08;10.90;;;17.50;71.80;;;;;;5034034;28;20240;-64
2022/03/27 10:15:59;;;;;;;18.33;11.80;;;17.50;71.90;;;;;;5034037;28;20650;-64
2022/03/27 10:18:27;;;;;;;16.23;10.48;;;17.40;71.70;;;;;;5033747;28;20222;-64
2022/03/27 10:20:59;;;;;;;20.80;10.50;;;17.60;71.50;;;;;;5033476;28;20207;-63
2022/03/27 10:23:29;;;;;;;18.38;10.90;;;17.80;70.60;;;;;;5033853;28;20194;-63
2022/03/27 10:26:01;;;;;;;21.80;12.20;;;17.80;70.20;;;;;;5033709;28;20206;-63
2022/03/27 10:28:29;;;;;;;17.88;11.10;;;17.90;70.00;;;;;;5033726;28;20230;-63
2022/03/27 10:30:56;;;;;;;17.77;10.35;;;18.10;69.80;;;;;;5033225;28;20219;-64
2022/03/27 10:33:27;;;;;;;20.25;11.05;;;18.20;69.20;;;;;;5033486;28;20214;-64
2022/03/27 10:36:00;;;;;;;17.02;10.38;;;18.40;68.30;;;;;;5033277;28;20630;-63
2022/03/27 10:38:46;;;;;;;20.33;10.68;;;18.60;67.20;;;;;;5033166;28;20230;-64
2022/03/27 10:41:16;;;;;;;18.20;9.85;;;18.70;66.50;;;;;;5033420;28;20210;-63
2022/03/27 10:43:51;;;;;;;18.30;10.02;;;18.80;65.90;;;;;;5032793;28;20210;-62
2022/03/27 10:46:21;;;;;;;18.55;9.48;;;18.90;64.90;;;;;;5032839;28;20216;-62
2022/03/27 10:48:49;;;;;;;18.40;9.90;;;19.00;65.20;;;;;;5032735;28;20744;-61
2022/03/27 10:51:37;;;;;;;13.70;9.23;;;19.20;63.50;;;;;;5032802;28;20237;-61
2022/03/27 10:54:07;;;;;;;18.08;10.15;;;19.40;62.90;;;;;;5032904;28;20229;-61
2022/03/27 10:56:36;;;;;;;17.35;9.68;;;19.40;63.00;;;;;;5032970;28;20233;-62
2022/03/27 10:59:25;;;;;;;15.90;10.02;;;19.30;61.80;;;;;;5032744;28;20625;-62
2022/03/27 11:01:53;;;;;;;18.17;9.20;;;19.50;62.50;;;;;;5025991;28;20294;-62
2022/03/27 11:04:22;;;;;;;13.13;8.40;;;19.70;61.00;;;;;;5032984;28;20210;-63
2022/03/27 11:06:50;;;;;;;14.38;7.63;;;19.80;56.70;;;;;;5032421;28;20210;-64
2022/03/27 11:09:34;;;;;;;12.52;7.35;;;20.00;56.30;;;;;;5032049;28;20205;-63
2022/03/27 11:12:02;;;;;;;14.65;8.07;;;20.10;53.00;;;;;;5032840;28;20295;-63
2022/03/27 11:14:59;;;;;;;17.05;7.45;;;20.10;53.70;;;;;;5032784;28;20202;-63
2022/03/27 11:17:44;;;;;;;11.45;7.15;;;20.10;52.40;;;;;;5032762;28;20272;-63
2022/03/27 11:20:46;;;;;;;13.77;7.00;;;20.00;52.60;;;;;;5032595;28;20308;-64
2022/03/27 11:23:31;;;;;;;18.48;7.30;;;20.00;52.20;;;;;;5027481;28;20210;-65
2022/03/27 11:26:00;;;;;;;15.65;7.63;;;20.00;51.40;;;;;;5033182;28;20229;-64
2022/03/27 11:28:44;;;;;;;15.90;8.32;;;20.00;51.30;;;;;;5032730;28;20233;-64
2022/03/27 11:31:20;;;;;;;17.17;7.65;;;20.00;51.90;;;;;;5032367;28;20648;-64
2022/03/27 11:34:18;;;;;;;14.43;8.05;;;20.00;52.10;;;;;;5032798;28;20613;-62
2022/03/27 11:36:48;;;;;;;18.25;8.13;;;20.30;51.80;;;;;;5028844;28;20222;-65
2022/03/27 11:39:33;;;;;;;15.73;7.43;;;20.50;51.50;;;;;;5031961;28;20210;-61
2022/03/27 11:42:29;;;;;;;17.10;8.30;;;20.70;51.40;;;;;;5032391;28;20665;-62
2022/03/27 11:45:24;;;;;;;18.92;7.47;;;20.70;50.50;;;;;;5031938;28;20244;-65
2022/03/27 11:47:53;;;;;;;11.95;7.78;;;20.70;49.50;;;;;;5032002;28;20317;-65
2022/03/27 11:50:26;;;;;;;18.50;8.18;;;20.60;49.90;;;;;;5031722;28;20202;-61
2022/03/27 11:52:53;;;;;;;12.30;7.40;;;20.70;50.00;;;;;;5032219;28;20212;-62
2022/03/27 11:55:20;;;;;;;14.93;7.38;;;20.70;49.50;;;;;;5031935;28;20215;-61
2022/03/27 11:57:51;;;;;;;14.75;8.00;;;20.90;48.50;;;;;;5032252;28;20230;-61
2022/03/27 12:00:30;;;;;;;15.02;7.97;;;21.00;50.30;;;;;;5031601;28;20585;-62
2022/03/27 12:02:58;;;;;;;16.40;7.60;;;21.10;50.60;;;;;;5032187;28;20657;-60
2022/03/27 12:05:33;;;;;;;15.60;8.25;;;21.10;50.10;;;;;;5031422;28;20757;-61
2022/03/27 12:07:59;;;;;;;12.77;7.50;;;21.10;48.80;;;;;;5032160;28;20320;-66
2022/03/27 12:10:26;;;;;;;11.63;7.82;;;21.20;48.40;;;;;;5031768;28;20260;-59
2022/03/27 12:12:58;;;;;;;16.75;8.00;;;21.20;48.50;;;;;;5031817;28;20293;-59
2022/03/27 12:15:36;;;;;;;17.83;8.50;;;21.30;48.80;;;;;;5031537;28;20293;-59
2022/03/27 12:18:04;;;;;;;16.98;8.15;;;21.40;48.90;;;;;;5032027;28;20330;-59
2022/03/27 12:20:40;;;;;;;16.70;7.38;;;21.50;48.80;;;;;;5032954;28;20233;-60
2022/03/27 12:23:18;;;;;;;13.65;7.78;;;21.60;48.80;;;;;;5035943;28;20221;-59
2022/03/27 12:25:44;;;;;;;13.02;6.88;;;21.60;48.90;;;;;;5035721;28;20212;-64
2022/03/27 12:30:56;;;;;;;13.60;7.60;;;21.60;48.50;;;;;;5035340;28;20232;-64
2022/03/27 12:33:24;;;;;;;13.98;7.47;;;21.60;47.70;;;;;;5035673;28;20214;-62
2022/03/27 12:36:04;;;;;;;12.98;7.25;;;21.50;47.30;;;;;;5035807;28;20269;-63
2022/03/27 12:38:31;;;;;;;13.80;7.25;;;21.50;47.90;;;;;;5035589;28;20488;-63
2022/03/27 12:40:58;;;;;;;15.85;7.43;;;21.50;48.60;;;;;;5034693;28;20293;-60
2022/03/27 12:43:27;;;;;;;14.15;7.53;;;21.50;48.20;;;;;;5035490;28;20213;-62
2022/03/27 12:45:53;;;;;;;12.73;7.65;;;21.60;49.10;;;;;;5035646;28;20210;-63
2022/03/27 12:48:23;;;;;;;15.32;7.40;;;21.70;47.60;;;;;;5035030;28;20238;-62
2022/03/27 12:50:52;;;;;;;11.63;6.88;;;21.90;47.00;;;;;;5034812;28;20209;-61